TS38 weather

Helitrans Heliport
Iowa Colony/Manvel, Texas, United States

Public forecast

Using degrees Fahrenheit for public forecast. Weather courtesy of forecast.io.

METAR (pilot weather report)

Closest report is Houston Southwest Airport, 4.3 nm (7.9 km) WNW. Retrieved 2019/07/17 14:35 UTC (0 seconds ago):

KAXH 171435Z AUTO 17006KT 10SM BKN017 BKN027 30/26 A3007 RMK AO2 T02950262

TAF (pilot weather forecast)

Closest forecast is William P Hobby Airport, 12.0 nm (22.2 km) NNE. Retrieved 2019/07/17 12:24 UTC (2 hours ago):

TAF KHOU 171122Z 1712/1812 17006KT P6SM SCT015 SCT025 FM171600 17011KT P6SM SCT040 FM180100 16007KT P6SM FEW030 SCT250 FM180900 17003KT P6SM SCT020